createdAt,value
2018-12-24T00:03:17.125Z,11.05
2018-12-24T00:06:06.865Z,11.12
2018-12-24T00:08:57.483Z,11.11
2018-12-24T00:11:47.046Z,11.14
2018-12-24T00:14:36.767Z,11.13
2018-12-24T00:17:26.241Z,11.13
2018-12-24T00:20:15.706Z,11.16
2018-12-24T00:23:05.967Z,11.20
2018-12-24T00:25:55.454Z,11.14
2018-12-24T00:28:44.914Z,11.18
2018-12-24T00:31:34.762Z,11.15
2018-12-24T00:34:25.071Z,11.20
2018-12-24T00:37:42.367Z,11.23
2018-12-24T00:40:32.619Z,11.27
2018-12-24T00:43:22.345Z,11.26
2018-12-24T00:46:12.353Z,11.22
2018-12-24T00:49:02.278Z,11.28
2018-12-24T00:51:52.052Z,11.31
2018-12-24T00:54:42.571Z,11.34
2018-12-24T00:57:33.048Z,11.33
2018-12-24T01:00:41.963Z,11.33
2018-12-24T01:03:52.014Z,11.36
2018-12-24T01:06:41.978Z,11.34
2018-12-24T01:09:31.481Z,11.39
2018-12-24T01:12:24.621Z,11.43
2018-12-24T01:15:12.824Z,11.45
2018-12-24T01:18:03.857Z,11.42
2018-12-24T01:20:54.080Z,11.45
2018-12-24T01:23:43.786Z,11.49
2018-12-24T01:26:33.912Z,11.48
2018-12-24T01:29:24.059Z,11.45
2018-12-24T01:32:14.295Z,11.46
2018-12-24T01:35:04.691Z,11.48
2018-12-24T01:37:54.448Z,11.46
2018-12-24T01:40:44.262Z,11.44
2018-12-24T01:43:34.260Z,11.42
2018-12-24T01:46:24.266Z,11.47
2018-12-24T01:49:15.002Z,11.46
2018-12-24T01:52:04.752Z,11.48
2018-12-24T01:54:54.912Z,11.51
2018-12-24T01:57:44.900Z,11.48
2018-12-24T02:00:34.661Z,11.46
2018-12-24T02:03:24.916Z,11.44
2018-12-24T02:06:14.909Z,11.37
2018-12-24T02:12:21.156Z,11.35
2018-12-24T02:15:10.894Z,11.36
2018-12-24T02:18:00.579Z,11.29
2018-12-24T02:20:50.515Z,11.26
2018-12-24T02:23:40.752Z,11.18
2018-12-24T02:26:30.506Z,11.20
2018-12-24T02:29:20.997Z,11.23
2018-12-24T02:32:10.710Z,11.21
2018-12-24T02:35:00.784Z,11.27
2018-12-24T02:37:50.528Z,11.30
2018-12-24T02:40:41.355Z,11.28
2018-12-24T02:43:30.812Z,11.33
2018-12-24T02:46:21.235Z,11.32
2018-12-24T02:49:11.321Z,11.31
2018-12-24T02:52:00.792Z,11.29
2018-12-24T02:54:50.791Z,11.25
2018-12-24T02:57:40.870Z,11.24
2018-12-24T03:00:30.826Z,11.27
2018-12-24T03:03:20.556Z,11.26
2018-12-24T03:06:10.427Z,11.24
2018-12-24T03:09:00.150Z,11.15
2018-12-24T03:11:50.469Z,11.16
2018-12-24T03:14:40.687Z,11.14
2018-12-24T03:17:30.889Z,11.17
2018-12-24T03:20:20.423Z,11.15
2018-12-24T03:23:11.215Z,11.13
2018-12-24T03:26:00.932Z,11.02
2018-12-24T03:28:50.900Z,10.90
2018-12-24T03:31:40.602Z,10.81
2018-12-24T03:34:31.814Z,10.74
2018-12-24T03:37:22.034Z,10.70
2018-12-24T03:40:11.855Z,10.64
2018-12-24T03:43:12.486Z,10.57
2018-12-24T03:45:56.250Z,10.52
2018-12-24T03:48:45.984Z,9.68
2018-12-24T03:51:36.043Z,6.89
2018-12-24T03:54:25.514Z,5.61
2018-12-24T03:57:16.384Z,5.14
2018-12-24T04:00:07.151Z,5.13
2018-12-24T04:02:56.589Z,5.13
2018-12-24T04:05:46.063Z,5.14
2018-12-24T04:08:36.315Z,5.20
2018-12-24T04:11:26.026Z,5.32
2018-12-24T04:14:15.765Z,5.32
2018-12-24T04:17:05.218Z,5.52
2018-12-24T04:19:55.419Z,5.49
2018-12-24T04:22:45.389Z,5.49
2018-12-24T04:25:40.436Z,5.62
2018-12-24T04:28:30.238Z,5.66
2018-12-24T04:31:19.897Z,5.64
2018-12-24T04:34:09.601Z,5.71
2018-12-24T04:36:59.315Z,5.77
2018-12-24T04:39:49.085Z,5.79
2018-12-24T04:42:38.527Z,5.81
2018-12-24T04:45:27.997Z,5.83
2018-12-24T04:48:17.948Z,5.80
2018-12-24T04:51:08.374Z,5.85
2018-12-24T04:53:57.822Z,5.87
2018-12-24T04:56:47.284Z,5.87
2018-12-24T04:59:36.744Z,5.85
2018-12-24T05:02:26.203Z,5.87
2018-12-24T05:05:17.098Z,5.84
2018-12-24T05:08:06.582Z,5.84
2018-12-24T05:10:56.397Z,5.82
2018-12-24T05:13:46.259Z,5.84
2018-12-24T05:16:35.729Z,5.81
2018-12-24T05:19:25.699Z,5.74
2018-12-24T05:22:15.978Z,5.77
2018-12-24T05:25:05.571Z,5.61
2018-12-24T05:27:55.256Z,5.53
2018-12-24T05:30:44.983Z,5.47
2018-12-24T05:33:34.665Z,5.42
2018-12-24T05:36:24.664Z,5.35
2018-12-24T05:39:14.116Z,5.36
2018-12-24T05:42:03.572Z,5.35
2018-12-24T05:44:53.257Z,5.31
2018-12-24T05:47:42.715Z,5.32
2018-12-24T05:50:32.407Z,5.33
2018-12-24T05:53:22.087Z,5.09
2018-12-24T05:56:11.809Z,4.98
2018-12-24T05:59:01.535Z,4.91
2018-12-24T06:01:51.718Z,4.81
2018-12-24T06:04:41.396Z,4.67
2018-12-24T06:07:31.457Z,4.54
2018-12-24T06:10:20.886Z,4.37
2018-12-24T06:13:10.578Z,4.36
2018-12-24T06:16:00.849Z,4.29
2018-12-24T06:18:50.294Z,4.20
2018-12-24T06:21:39.992Z,4.18
2018-12-24T06:24:29.796Z,4.14
2018-12-24T06:27:19.254Z,4.11
2018-12-24T06:30:09.761Z,4.12
2018-12-24T06:32:59.461Z,4.13
2018-12-24T06:36:08.776Z,4.10
2018-12-24T06:38:58.681Z,4.10
2018-12-24T06:41:48.479Z,4.04
2018-12-24T06:44:38.249Z,3.97
2018-12-24T06:47:27.964Z,3.99
2018-12-24T06:50:17.669Z,4.00
2018-12-24T06:53:08.141Z,3.90
2018-12-24T06:55:58.083Z,3.83
2018-12-24T06:58:47.565Z,3.90
2018-12-24T07:01:38.102Z,3.84
2018-12-24T07:04:28.213Z,3.76
2018-12-24T07:07:18.130Z,3.82
2018-12-24T07:10:07.744Z,3.85
2018-12-24T07:12:57.948Z,3.75
2018-12-24T07:15:50.509Z,3.88
2018-12-24T07:18:41.009Z,4.01
2018-12-24T07:21:31.291Z,4.19
2018-12-24T07:24:21.708Z,4.28
2018-12-24T07:27:12.068Z,4.27
2018-12-24T07:30:01.910Z,4.36
2018-12-24T07:32:52.208Z,4.37
2018-12-24T07:35:42.168Z,4.45
2018-12-24T07:38:32.973Z,4.43
2018-12-24T07:41:24.013Z,4.43
2018-12-24T07:44:13.805Z,4.23
2018-12-24T07:47:22.854Z,4.28
2018-12-24T07:50:12.310Z,4.33
2018-12-24T07:53:02.598Z,4.42
2018-12-24T07:55:52.344Z,4.36
2018-12-24T07:58:42.358Z,4.27
2018-12-24T08:01:33.105Z,4.13
2018-12-24T08:04:21.891Z,4.26
2018-12-24T08:07:32.627Z,4.11
2018-12-24T08:10:41.700Z,4.17
2018-12-24T08:13:31.170Z,4.30
2018-12-24T08:16:20.937Z,4.30
2018-12-24T08:19:26.005Z,4.22
2018-12-24T08:22:02.596Z,4.12
2018-12-24T08:24:52.632Z,4.16
2018-12-24T08:27:42.080Z,4.15
2018-12-24T08:30:31.809Z,4.22
2018-12-24T08:33:21.579Z,4.30
2018-12-24T08:36:11.076Z,4.37
2018-12-24T08:39:01.000Z,4.43
2018-12-24T08:41:50.692Z,4.41
2018-12-24T08:44:41.855Z,4.52
2018-12-24T08:47:31.862Z,4.50
2018-12-24T08:50:21.568Z,4.48
2018-12-24T08:53:12.847Z,4.37
2018-12-24T08:56:04.128Z,4.42
2018-12-24T08:58:53.707Z,4.39
2018-12-24T09:01:43.168Z,4.50
2018-12-24T09:05:15.234Z,4.50
2018-12-24T09:08:05.029Z,4.50
2018-12-24T09:10:54.553Z,4.49
2018-12-24T09:13:44.257Z,4.49
2018-12-24T09:16:34.011Z,4.54
2018-12-24T09:19:23.692Z,4.41
2018-12-24T09:22:14.542Z,4.42
2018-12-24T09:25:04.697Z,4.41
2018-12-24T09:27:55.623Z,4.25
2018-12-24T09:30:51.870Z,4.28
2018-12-24T09:33:44.746Z,4.29
2018-12-24T09:36:34.699Z,4.35
2018-12-24T09:39:24.127Z,4.28
2018-12-24T09:42:28.177Z,4.42
2018-12-24T09:45:05.806Z,4.31
2018-12-24T09:47:55.877Z,4.34
2018-12-24T09:51:05.315Z,4.28
2018-12-24T09:53:55.880Z,4.28
2018-12-24T09:56:45.602Z,4.40
2018-12-24T09:59:35.942Z,4.34
2018-12-24T10:02:31.852Z,4.45
2018-12-24T10:05:23.493Z,4.45
2018-12-24T10:08:16.720Z,4.50
2018-12-24T10:11:06.455Z,4.54
2018-12-24T10:13:56.947Z,4.54
2018-12-24T10:16:46.909Z,4.47
2018-12-24T10:19:36.608Z,4.46
2018-12-24T10:22:25.385Z,4.45
2018-12-24T10:25:15.125Z,4.56
2018-12-24T10:28:24.014Z,4.43
2018-12-24T10:31:14.546Z,4.50
2018-12-24T10:34:04.784Z,4.49
2018-12-24T10:36:54.481Z,4.56
2018-12-24T10:39:44.389Z,4.45
2018-12-24T10:42:34.348Z,4.43
2018-12-24T10:45:24.293Z,4.48
2018-12-24T10:51:29.928Z,4.44
2018-12-24T10:54:19.835Z,4.77
2018-12-24T10:57:09.497Z,4.67
2018-12-24T10:59:59.615Z,4.74
2018-12-24T11:02:49.752Z,4.84
2018-12-24T11:05:40.417Z,4.77
2018-12-24T11:08:31.400Z,4.83
2018-12-24T11:11:21.236Z,4.88
2018-12-24T11:14:11.818Z,4.84
2018-12-24T11:17:02.049Z,4.93
2018-12-24T11:19:53.717Z,4.80
2018-12-24T11:22:44.063Z,4.89
2018-12-24T11:25:34.307Z,4.79
2018-12-24T11:28:23.790Z,4.75
2018-12-24T11:31:13.624Z,4.91
2018-12-24T11:34:03.342Z,5.07
2018-12-24T11:36:53.532Z,4.84
2018-12-24T11:39:43.787Z,4.87
2018-12-24T11:42:33.711Z,4.92
2018-12-24T11:45:23.429Z,5.24
2018-12-24T11:48:14.548Z,5.23
2018-12-24T11:51:04.369Z,5.30
2018-12-24T11:53:54.653Z,5.11
2018-12-24T11:56:44.608Z,5.06
2018-12-24T11:59:34.074Z,5.16
2018-12-24T12:02:24.327Z,5.19
2018-12-24T12:05:13.784Z,5.30
2018-12-24T12:08:03.552Z,5.27
2018-12-24T12:11:15.991Z,5.25
2018-12-24T12:14:06.101Z,5.18
2018-12-24T12:16:55.903Z,5.12
2018-12-24T12:19:45.673Z,5.00
2018-12-24T12:22:54.602Z,5.18
2018-12-24T12:25:45.181Z,5.00
2018-12-24T12:28:34.899Z,4.83
2018-12-24T12:31:25.235Z,4.91
2018-12-24T12:34:15.028Z,4.95
2018-12-24T12:37:04.524Z,5.19
2018-12-24T12:39:53.979Z,5.20
2018-12-24T12:42:44.240Z,5.06
2018-12-24T12:45:34.377Z,5.02
2018-12-24T12:48:25.587Z,5.05
2018-12-24T12:51:16.315Z,5.09
2018-12-24T12:54:06.706Z,5.05
2018-12-24T12:56:56.439Z,4.92
2018-12-24T12:59:46.640Z,4.89
2018-12-24T13:02:36.381Z,4.81
2018-12-24T13:05:26.093Z,4.82
2018-12-24T13:08:15.837Z,5.12
2018-12-24T13:11:05.534Z,5.42
2018-12-24T13:13:55.253Z,5.56
2018-12-24T13:16:44.717Z,5.77
2018-12-24T13:19:34.514Z,5.92
2018-12-24T13:22:24.473Z,5.81
2018-12-24T13:25:15.716Z,5.80
2018-12-24T13:28:05.674Z,5.82
2018-12-24T13:30:55.131Z,5.53
2018-12-24T13:33:44.603Z,5.60
2018-12-24T13:36:34.602Z,5.62
2018-12-24T13:39:24.100Z,5.44
2018-12-24T13:42:13.771Z,5.36
2018-12-24T13:45:03.677Z,5.56
2018-12-24T13:47:53.288Z,5.16
2018-12-24T13:50:43.054Z,5.14
2018-12-24T13:53:32.756Z,5.05
2018-12-24T13:56:22.766Z,5.09
2018-12-24T13:59:12.446Z,5.08
2018-12-24T14:02:02.183Z,5.06
2018-12-24T14:04:52.485Z,5.03
2018-12-24T14:07:43.060Z,4.75
2018-12-24T14:10:32.534Z,4.73
2018-12-24T14:13:22.523Z,4.70
2018-12-24T14:16:16.742Z,4.63
2018-12-24T14:19:04.941Z,4.58
2018-12-24T14:21:54.912Z,4.47
2018-12-24T14:24:46.483Z,4.39
2018-12-24T14:27:37.028Z,4.42
2018-12-24T14:30:26.486Z,4.42
2018-12-24T14:33:16.225Z,4.44
2018-12-24T14:36:05.932Z,4.48
2018-12-24T14:38:55.679Z,4.37
2018-12-24T14:41:45.624Z,4.35
2018-12-24T14:44:35.587Z,4.14
2018-12-24T14:47:26.095Z,3.79
2018-12-24T14:50:35.855Z,3.07
2018-12-24T14:53:25.811Z,3.07
2018-12-24T14:56:15.270Z,2.93
2018-12-24T14:59:05.564Z,3.12
2018-12-24T15:01:55.512Z,3.11
2018-12-24T15:04:45.449Z,3.17
2018-12-24T15:07:34.905Z,3.22
2018-12-24T15:10:24.845Z,3.39
2018-12-24T15:13:14.544Z,3.57
2018-12-24T15:16:04.314Z,3.57
2018-12-24T15:18:54.548Z,3.60
2018-12-24T15:21:44.013Z,3.75
2018-12-24T15:24:34.605Z,3.75
2018-12-24T15:27:24.077Z,3.65
2018-12-24T15:30:14.050Z,3.47
2018-12-24T15:33:03.754Z,3.49
2018-12-24T15:35:54.318Z,3.43
2018-12-24T15:38:44.259Z,3.54
2018-12-24T15:41:34.668Z,3.57
2018-12-24T15:44:24.354Z,3.66
2018-12-24T15:47:14.386Z,3.65
2018-12-24T15:50:04.153Z,3.68
2018-12-24T15:52:54.702Z,3.70
2018-12-24T15:55:44.161Z,3.80
2018-12-24T15:58:33.629Z,3.88
2018-12-24T16:01:23.868Z,3.82
2018-12-24T16:04:13.880Z,3.86
2018-12-24T16:07:04.043Z,3.85
2018-12-24T16:10:12.729Z,3.86
2018-12-24T16:13:02.199Z,3.86
2018-12-24T16:16:11.645Z,3.75
2018-12-24T16:19:20.801Z,3.86
2018-12-24T16:22:10.540Z,3.86
2018-12-24T16:25:00.358Z,3.92
2018-12-24T16:27:50.397Z,3.81
2018-12-24T16:30:59.064Z,3.72
2018-12-24T16:33:48.770Z,3.72
2018-12-24T16:36:38.240Z,3.75
2018-12-24T16:39:28.225Z,3.85
2018-12-24T16:42:17.944Z,3.93
2018-12-24T16:45:07.815Z,3.94
2018-12-24T16:47:57.538Z,3.89
2018-12-24T16:50:47.046Z,3.76
2018-12-24T16:53:40.546Z,3.78
2018-12-24T16:56:28.673Z,3.81
2018-12-24T16:59:18.389Z,3.85
2018-12-24T17:02:07.918Z,3.79
2018-12-24T17:04:57.437Z,3.84
2018-12-24T17:07:46.911Z,3.80
2018-12-24T17:10:36.372Z,3.85
2018-12-24T17:13:45.361Z,3.75
2018-12-24T17:16:35.587Z,3.75
2018-12-24T17:19:25.033Z,3.70
2018-12-24T17:22:14.500Z,3.82
2018-12-24T17:25:04.290Z,3.78
2018-12-24T17:27:53.755Z,3.77
2018-12-24T17:30:43.481Z,3.86
2018-12-24T17:33:33.240Z,3.75
2018-12-24T17:36:23.740Z,3.78
2018-12-24T17:39:15.366Z,3.68
2018-12-24T17:42:05.169Z,3.67
2018-12-24T17:44:54.870Z,3.75
2018-12-24T17:47:45.000Z,3.63
2018-12-24T17:50:34.477Z,3.55
2018-12-24T17:53:24.238Z,3.67
2018-12-24T17:56:14.183Z,3.52
2018-12-24T17:59:04.222Z,3.60
2018-12-24T18:01:54.060Z,3.49
2018-12-24T18:04:43.774Z,3.57
2018-12-24T18:07:33.504Z,3.57
2018-12-24T18:10:42.428Z,3.61
2018-12-24T18:13:51.403Z,3.50
2018-12-24T18:16:41.538Z,3.53
2018-12-24T18:19:31.295Z,3.53
2018-12-24T18:22:40.500Z,3.54
2018-12-24T18:25:30.224Z,3.54
2018-12-24T18:28:19.927Z,3.47
2018-12-24T18:31:10.136Z,3.58
2018-12-24T18:33:59.611Z,3.48
2018-12-24T18:36:50.024Z,3.53
2018-12-24T18:39:39.492Z,3.58
2018-12-24T18:42:30.053Z,3.57
2018-12-24T18:45:19.575Z,3.60
2018-12-24T18:48:09.310Z,3.46
2018-12-24T18:50:59.036Z,3.39
2018-12-24T18:53:49.315Z,3.37
2018-12-24T18:56:39.666Z,3.40
2018-12-24T18:59:29.137Z,3.33
2018-12-24T19:02:19.102Z,3.25
2018-12-24T19:05:09.302Z,3.31
2018-12-24T19:07:59.018Z,3.25
2018-12-24T19:10:48.747Z,3.28
2018-12-24T19:13:38.222Z,3.23
2018-12-24T19:19:38.597Z,3.39
2018-12-24T19:22:28.338Z,3.33
2018-12-24T19:25:17.806Z,3.25
2018-12-24T19:28:07.772Z,3.26
2018-12-24T19:30:57.753Z,3.28
2018-12-24T19:33:47.928Z,3.19
2018-12-24T19:36:37.391Z,3.18
2018-12-24T19:39:27.436Z,3.23
2018-12-24T19:42:16.875Z,3.27
2018-12-24T19:45:06.877Z,3.25
2018-12-24T19:47:56.859Z,3.10
2018-12-24T19:50:46.550Z,3.05
2018-12-24T19:53:35.999Z,3.02
2018-12-24T19:56:26.039Z,3.00
2018-12-24T19:59:15.518Z,3.00
2018-12-24T20:02:05.284Z,3.09
2018-12-24T20:04:55.691Z,3.09
2018-12-24T20:07:45.455Z,3.00
2018-12-24T20:10:35.430Z,3.06
2018-12-24T20:13:24.928Z,3.11
2018-12-24T20:16:14.386Z,3.06
2018-12-24T20:19:04.081Z,3.07
2018-12-24T20:21:54.274Z,3.09
2018-12-24T20:24:44.166Z,3.12
2018-12-24T20:27:33.887Z,3.18
2018-12-24T20:30:23.862Z,3.13
2018-12-24T20:33:13.840Z,3.14
2018-12-24T20:36:03.335Z,3.13
2018-12-24T20:38:52.807Z,3.17
2018-12-24T20:41:42.756Z,3.26
2018-12-24T20:44:32.858Z,3.34
2018-12-24T20:47:22.967Z,3.39
2018-12-24T20:50:12.841Z,3.40
2018-12-24T20:53:02.781Z,3.53
2018-12-24T20:55:52.508Z,3.41
2018-12-24T20:58:42.247Z,3.41
2018-12-24T21:01:31.790Z,3.48
2018-12-24T21:04:40.717Z,3.52
2018-12-24T21:07:30.412Z,3.52
2018-12-24T21:10:20.232Z,3.48
2018-12-24T21:13:11.531Z,3.48
2018-12-24T21:16:00.977Z,3.46
2018-12-24T21:18:50.431Z,3.44
2018-12-24T21:21:40.755Z,3.42
2018-12-24T21:24:30.310Z,3.41
2018-12-24T21:27:20.022Z,3.36
2018-12-24T21:30:09.833Z,3.49
2018-12-24T21:32:59.283Z,3.45
2018-12-24T21:35:48.751Z,3.36
2018-12-24T21:38:38.224Z,3.41
2018-12-24T21:41:47.630Z,3.44
2018-12-24T21:44:37.899Z,3.44
2018-12-24T21:47:28.510Z,3.51
2018-12-24T21:50:37.199Z,3.30
2018-12-24T21:53:27.432Z,3.30
2018-12-24T21:56:17.612Z,3.37
2018-12-24T21:59:07.335Z,3.40
2018-12-24T22:02:16.758Z,3.36
2018-12-24T22:05:06.395Z,3.30
2018-12-24T22:07:56.659Z,3.30
2018-12-24T22:10:46.127Z,3.43
2018-12-24T22:13:36.358Z,3.33
2018-12-24T22:16:25.841Z,3.30
2018-12-24T22:19:16.018Z,3.29
2018-12-24T22:22:05.854Z,3.30
2018-12-24T22:24:55.385Z,3.33
2018-12-24T22:27:45.432Z,3.46
2018-12-24T22:30:54.122Z,3.41
2018-12-24T22:33:44.104Z,3.41
2018-12-24T22:36:33.575Z,3.33
2018-12-24T22:39:23.318Z,3.49
2018-12-24T22:42:13.028Z,3.48
2018-12-24T22:45:02.809Z,3.33
2018-12-24T22:47:52.804Z,3.37
2018-12-24T22:50:42.852Z,3.40
2018-12-24T22:53:32.814Z,3.43
2018-12-24T22:56:22.646Z,3.34
2018-12-24T22:59:12.399Z,3.26
2018-12-24T23:02:21.413Z,3.29
2018-12-24T23:05:11.202Z,3.29
2018-12-24T23:08:00.772Z,3.32
2018-12-24T23:11:09.707Z,3.33
2018-12-24T23:13:59.146Z,3.33
2018-12-24T23:16:48.904Z,3.28
2018-12-24T23:19:38.647Z,3.33
2018-12-24T23:22:28.366Z,3.20
2018-12-24T23:25:17.830Z,3.25
2018-12-24T23:28:07.315Z,3.19
2018-12-24T23:30:56.784Z,3.22
2018-12-24T23:33:46.535Z,3.16
2018-12-24T23:36:36.509Z,3.16
2018-12-24T23:39:25.966Z,3.25
2018-12-24T23:42:16.433Z,3.21
2018-12-24T23:45:05.983Z,3.32
2018-12-24T23:47:55.936Z,3.16
2018-12-24T23:50:45.403Z,3.11
2018-12-24T23:53:54.887Z,3.15
2018-12-24T23:56:44.419Z,3.15
2018-12-24T23:59:34.130Z,3.11
